Terminal Aerodrome Forecast
Issued by NWS

Home | Current Version | Previous Version | Graphics & Text | Print | Product List | Glossary On
Versions: 1 2 3 4 5 6 7 8 9 10 11 12 13 14 15 16 17 18 19
000
FTUS43 KMPX 171414 AAA
TAFRWF
TAF AMD
KRWF 171414Z 1714/1812 31013G21KT P6SM SCT007 OVC015
     FM171800 31017G26KT P6SM BKN020
     FM172000 31015G23KT P6SM SCT030
     FM180000 30010KT P6SM SKC
     FM180900 24005KT P6SM SCT120=

USA.gov is the U.S. government's official web portal to all federal, state and local government web resources and services.